sensor_id;sensor_type;location;lat;lon;timestamp;P1;durP1;ratioP1;P2;durP2;ratioP2
41661;SDS011;27351;45.992;12.666;2023-01-29T00:01:06;22.97;;;13.77;;
41661;SDS011;27351;45.992;12.666;2023-01-29T00:03:32;26.73;;;14.23;;
41661;SDS011;27351;45.992;12.666;2023-01-29T00:05:57;26.85;;;15.23;;
41661;SDS011;27351;45.992;12.666;2023-01-29T00:08:23;26.35;;;14.13;;
41661;SDS011;27351;45.992;12.666;2023-01-29T00:10:49;30.58;;;14.60;;
41661;SDS011;27351;45.992;12.666;2023-01-29T00:13:15;29.37;;;15.10;;
41661;SDS011;27351;45.992;12.666;2023-01-29T00:15:40;28.00;;;14.23;;
41661;SDS011;27351;45.992;12.666;2023-01-29T00:18:06;28.23;;;13.73;;
41661;SDS011;27351;45.992;12.666;2023-01-29T00:20:32;29.83;;;15.53;;
41661;SDS011;27351;45.992;12.666;2023-01-29T00:22:58;30.67;;;16.00;;
41661;SDS011;27351;45.992;12.666;2023-01-29T00:25:23;33.35;;;17.63;;
41661;SDS011;27351;45.992;12.666;2023-01-29T00:27:49;31.17;;;17.33;;
41661;SDS011;27351;45.992;12.666;2023-01-29T00:30:16;30.15;;;17.50;;
41661;SDS011;27351;45.992;12.666;2023-01-29T00:32:43;29.10;;;16.73;;
41661;SDS011;27351;45.992;12.666;2023-01-29T00:35:10;34.95;;;17.30;;
41661;SDS011;27351;45.992;12.666;2023-01-29T00:37:36;31.38;;;16.27;;
41661;SDS011;27351;45.992;12.666;2023-01-29T00:40:03;31.05;;;17.55;;
41661;SDS011;27351;45.992;12.666;2023-01-29T00:42:28;29.52;;;15.35;;
41661;SDS011;27351;45.992;12.666;2023-01-29T00:45:13;32.53;;;17.63;;
41661;SDS011;27351;45.992;12.666;2023-01-29T00:47:39;31.83;;;16.98;;
41661;SDS011;27351;45.992;12.666;2023-01-29T00:50:07;29.52;;;15.68;;
41661;SDS011;27351;45.992;12.666;2023-01-29T00:52:34;29.58;;;16.27;;
41661;SDS011;27351;45.992;12.666;2023-01-29T00:55:02;30.85;;;17.10;;
41661;SDS011;27351;45.992;12.666;2023-01-29T00:57:28;31.48;;;16.45;;
41661;SDS011;27351;45.992;12.666;2023-01-29T00:59:55;33.40;;;17.33;;
41661;SDS011;27351;45.992;12.666;2023-01-29T01:02:21;28.93;;;17.00;;
41661;SDS011;27351;45.992;12.666;2023-01-29T01:05:06;30.57;;;17.33;;
41661;SDS011;27351;45.992;12.666;2023-01-29T01:07:34;28.63;;;17.40;;
41661;SDS011;27351;45.992;12.666;2023-01-29T01:10:00;31.57;;;16.83;;
41661;SDS011;27351;45.992;12.666;2023-01-29T01:12:44;29.45;;;15.85;;
41661;SDS011;27351;45.992;12.666;2023-01-29T01:15:10;27.60;;;15.40;;
41661;SDS011;27351;45.992;12.666;2023-01-29T01:17:36;27.65;;;15.48;;
41661;SDS011;27351;45.992;12.666;2023-01-29T01:20:03;27.85;;;14.50;;
41661;SDS011;27351;45.992;12.666;2023-01-29T01:22:29;26.88;;;14.80;;
41661;SDS011;27351;45.992;12.666;2023-01-29T01:24:56;26.58;;;15.48;;
41661;SDS011;27351;45.992;12.666;2023-01-29T01:27:22;27.33;;;15.07;;
41661;SDS011;27351;45.992;12.666;2023-01-29T01:29:48;26.77;;;15.10;;
41661;SDS011;27351;45.992;12.666;2023-01-29T01:32:13;27.80;;;15.00;;
41661;SDS011;27351;45.992;12.666;2023-01-29T01:34:41;31.83;;;16.08;;
41661;SDS011;27351;45.992;12.666;2023-01-29T01:37:12;26.70;;;15.02;;
41661;SDS011;27351;45.992;12.666;2023-01-29T01:39:37;25.40;;;14.27;;
41661;SDS011;27351;45.992;12.666;2023-01-29T01:42:04;26.83;;;13.75;;
41661;SDS011;27351;45.992;12.666;2023-01-29T01:47:14;27.67;;;14.85;;
41661;SDS011;27351;45.992;12.666;2023-01-29T01:49:41;27.60;;;15.47;;
41661;SDS011;27351;45.992;12.666;2023-01-29T01:52:07;22.58;;;13.10;;
41661;SDS011;27351;45.992;12.666;2023-01-29T01:54:33;24.77;;;12.90;;
41661;SDS011;27351;45.992;12.666;2023-01-29T01:57:00;27.27;;;15.18;;
41661;SDS011;27351;45.992;12.666;2023-01-29T01:59:37;27.02;;;14.20;;
41661;SDS011;27351;45.992;12.666;2023-01-29T02:02:04;24.20;;;14.57;;
41661;SDS011;27351;45.992;12.666;2023-01-29T02:04:49;26.88;;;14.18;;
41661;SDS011;27351;45.992;12.666;2023-01-29T02:07:34;25.30;;;13.95;;
41661;SDS011;27351;45.992;12.666;2023-01-29T02:10:19;25.58;;;14.45;;
41661;SDS011;27351;45.992;12.666;2023-01-29T02:12:45;27.52;;;15.45;;
41661;SDS011;27351;45.992;12.666;2023-01-29T02:15:11;27.08;;;15.95;;
41661;SDS011;27351;45.992;12.666;2023-01-29T02:17:38;24.17;;;14.10;;
41661;SDS011;27351;45.992;12.666;2023-01-29T02:30:35;26.75;;;13.45;;
41661;SDS011;27351;45.992;12.666;2023-01-29T02:35:58;26.05;;;14.75;;
41661;SDS011;27351;45.992;12.666;2023-01-29T02:41:15;28.00;;;15.10;;
41661;SDS011;27351;45.992;12.666;2023-01-29T02:48:58;26.00;;;14.63;;
41661;SDS011;27351;45.992;12.666;2023-01-29T02:51:37;26.08;;;13.40;;
41661;SDS011;27351;45.992;12.666;2023-01-29T02:56:55;25.63;;;13.68;;
41661;SDS011;27351;45.992;12.666;2023-01-29T02:59:24;30.45;;;15.13;;
41661;SDS011;27351;45.992;12.666;2023-01-29T03:01:52;27.50;;;14.30;;
41661;SDS011;27351;45.992;12.666;2023-01-29T03:04:28;22.67;;;12.67;;
41661;SDS011;27351;45.992;12.666;2023-01-29T03:06:59;23.60;;;12.82;;
41661;SDS011;27351;45.992;12.666;2023-01-29T03:09:35;24.90;;;13.90;;
41661;SDS011;27351;45.992;12.666;2023-01-29T03:12:12;21.77;;;11.73;;
41661;SDS011;27351;45.992;12.666;2023-01-29T03:14:53;26.25;;;14.10;;
41661;SDS011;27351;45.992;12.666;2023-01-29T03:18:04;23.92;;;12.35;;
41661;SDS011;27351;45.992;12.666;2023-01-29T03:20:33;25.13;;;13.77;;
41661;SDS011;27351;45.992;12.666;2023-01-29T03:23:08;25.67;;;14.00;;
41661;SDS011;27351;45.992;12.666;2023-01-29T03:25:36;25.53;;;14.23;;
41661;SDS011;27351;45.992;12.666;2023-01-29T03:28:21;24.63;;;13.45;;
41661;SDS011;27351;45.992;12.666;2023-01-29T03:31:09;23.83;;;12.90;;
41661;SDS011;27351;45.992;12.666;2023-01-29T03:36:31;22.48;;;12.13;;
41661;SDS011;27351;45.992;12.666;2023-01-29T03:39:07;25.27;;;12.15;;
41661;SDS011;27351;45.992;12.666;2023-01-29T03:41:39;23.73;;;12.93;;
41661;SDS011;27351;45.992;12.666;2023-01-29T03:44:14;23.83;;;12.80;;
41661;SDS011;27351;45.992;12.666;2023-01-29T03:55:40;23.50;;;12.27;;
41661;SDS011;27351;45.992;12.666;2023-01-29T03:57:40;22.50;;;12.52;;
41661;SDS011;27351;45.992;12.666;2023-01-29T04:00:18;26.02;;;13.20;;
41661;SDS011;27351;45.992;12.666;2023-01-29T04:03:16;26.00;;;13.25;;
41661;SDS011;27351;45.992;12.666;2023-01-29T04:05:46;23.40;;;13.02;;
41661;SDS011;27351;45.992;12.666;2023-01-29T04:08:23;21.95;;;12.88;;
41661;SDS011;27351;45.992;12.666;2023-01-29T04:10:51;24.85;;;12.57;;
41661;SDS011;27351;45.992;12.666;2023-01-29T04:13:18;24.33;;;13.23;;
41661;SDS011;27351;45.992;12.666;2023-01-29T04:15:52;26.80;;;12.75;;
41661;SDS011;27351;45.992;12.666;2023-01-29T04:18:38;25.67;;;13.45;;
41661;SDS011;27351;45.992;12.666;2023-01-29T04:21:07;25.58;;;12.32;;
41661;SDS011;27351;45.992;12.666;2023-01-29T04:23:34;22.05;;;12.63;;
41661;SDS011;27351;45.992;12.666;2023-01-29T04:26:14;22.95;;;11.43;;
41661;SDS011;27351;45.992;12.666;2023-01-29T04:31:30;21.85;;;12.48;;
41661;SDS011;27351;45.992;12.666;2023-01-29T04:36:40;22.08;;;12.10;;
41661;SDS011;27351;45.992;12.666;2023-01-29T04:41:52;22.38;;;11.40;;
41661;SDS011;27351;45.992;12.666;2023-01-29T04:44:20;23.15;;;11.85;;
41661;SDS011;27351;45.992;12.666;2023-01-29T04:46:53;22.00;;;11.80;;
41661;SDS011;27351;45.992;12.666;2023-01-29T04:52:04;23.45;;;12.20;;
41661;SDS011;27351;45.992;12.666;2023-01-29T04:57:55;21.65;;;12.80;;
41661;SDS011;27351;45.992;12.666;2023-01-29T05:00:13;24.50;;;12.55;;
41661;SDS011;27351;45.992;12.666;2023-01-29T05:02:42;24.05;;;12.00;;
41661;SDS011;27351;45.992;12.666;2023-01-29T05:05:09;22.07;;;11.80;;
41661;SDS011;27351;45.992;12.666;2023-01-29T05:07:36;22.50;;;11.45;;
41661;SDS011;27351;45.992;12.666;2023-01-29T05:10:04;21.60;;;11.55;;
41661;SDS011;27351;45.992;12.666;2023-01-29T05:12:30;22.20;;;12.00;;
41661;SDS011;27351;45.992;12.666;2023-01-29T05:14:57;24.88;;;11.82;;
41661;SDS011;27351;45.992;12.666;2023-01-29T05:17:25;24.50;;;12.43;;
41661;SDS011;27351;45.992;12.666;2023-01-29T05:19:52;23.30;;;12.40;;
41661;SDS011;27351;45.992;12.666;2023-01-29T05:22:20;25.70;;;12.55;;
41661;SDS011;27351;45.992;12.666;2023-01-29T05:24:48;23.80;;;12.10;;
41661;SDS011;27351;45.992;12.666;2023-01-29T05:27:18;23.73;;;11.98;;
41661;SDS011;27351;45.992;12.666;2023-01-29T05:30:04;22.77;;;12.07;;
41661;SDS011;27351;45.992;12.666;2023-01-29T05:32:30;23.10;;;12.05;;
41661;SDS011;27351;45.992;12.666;2023-01-29T05:34:58;23.17;;;12.27;;
41661;SDS011;27351;45.992;12.666;2023-01-29T05:37:27;23.58;;;12.35;;
41661;SDS011;27351;45.992;12.666;2023-01-29T05:39:53;25.43;;;13.23;;
41661;SDS011;27351;45.992;12.666;2023-01-29T05:42:20;22.30;;;12.50;;
41661;SDS011;27351;45.992;12.666;2023-01-29T05:44:46;24.13;;;11.90;;
41661;SDS011;27351;45.992;12.666;2023-01-29T05:47:12;21.23;;;11.17;;
41661;SDS011;27351;45.992;12.666;2023-01-29T05:49:37;23.48;;;11.88;;
41661;SDS011;27351;45.992;12.666;2023-01-29T05:52:03;21.63;;;11.45;;
41661;SDS011;27351;45.992;12.666;2023-01-29T05:54:29;22.83;;;12.52;;
41661;SDS011;27351;45.992;12.666;2023-01-29T05:56:55;24.37;;;12.43;;
41661;SDS011;27351;45.992;12.666;2023-01-29T05:59:21;23.88;;;12.57;;
41661;SDS011;27351;45.992;12.666;2023-01-29T06:01:47;20.33;;;11.63;;
41661;SDS011;27351;45.992;12.666;2023-01-29T06:04:13;21.00;;;11.02;;
41661;SDS011;27351;45.992;12.666;2023-01-29T06:06:38;22.93;;;12.40;;
41661;SDS011;27351;45.992;12.666;2023-01-29T06:09:04;21.90;;;12.67;;
41661;SDS011;27351;45.992;12.666;2023-01-29T06:11:30;21.10;;;11.43;;
41661;SDS011;27351;45.992;12.666;2023-01-29T06:13:55;25.02;;;13.43;;
41661;SDS011;27351;45.992;12.666;2023-01-29T06:16:21;24.20;;;12.98;;
41661;SDS011;27351;45.992;12.666;2023-01-29T06:18:47;25.30;;;12.73;;
41661;SDS011;27351;45.992;12.666;2023-01-29T06:21:12;25.03;;;13.00;;
41661;SDS011;27351;45.992;12.666;2023-01-29T06:23:38;28.67;;;14.63;;
41661;SDS011;27351;45.992;12.666;2023-01-29T06:26:05;30.50;;;14.40;;
41661;SDS011;27351;45.992;12.666;2023-01-29T06:28:31;32.35;;;15.63;;
41661;SDS011;27351;45.992;12.666;2023-01-29T06:30:58;27.35;;;13.98;;
41661;SDS011;27351;45.992;12.666;2023-01-29T06:33:28;24.58;;;13.65;;
41661;SDS011;27351;45.992;12.666;2023-01-29T06:35:55;26.67;;;13.90;;
41661;SDS011;27351;45.992;12.666;2023-01-29T06:38:21;27.58;;;13.85;;
41661;SDS011;27351;45.992;12.666;2023-01-29T06:40:47;26.30;;;13.10;;
41661;SDS011;27351;45.992;12.666;2023-01-29T06:43:12;23.73;;;13.40;;
41661;SDS011;27351;45.992;12.666;2023-01-29T06:45:44;28.63;;;15.63;;
41661;SDS011;27351;45.992;12.666;2023-01-29T06:48:10;33.72;;;16.20;;
41661;SDS011;27351;45.992;12.666;2023-01-29T06:50:52;31.83;;;15.60;;
41661;SDS011;27351;45.992;12.666;2023-01-29T06:53:19;25.23;;;13.65;;
41661;SDS011;27351;45.992;12.666;2023-01-29T06:55:51;29.05;;;14.93;;
41661;SDS011;27351;45.992;12.666;2023-01-29T06:58:17;25.45;;;14.20;;
41661;SDS011;27351;45.992;12.666;2023-01-29T07:00:43;27.00;;;13.45;;
41661;SDS011;27351;45.992;12.666;2023-01-29T07:03:09;25.10;;;13.50;;
41661;SDS011;27351;45.992;12.666;2023-01-29T07:05:35;23.30;;;12.50;;
41661;SDS011;27351;45.992;12.666;2023-01-29T07:08:01;26.13;;;11.88;;
41661;SDS011;27351;45.992;12.666;2023-01-29T07:10:27;21.13;;;11.65;;
41661;SDS011;27351;45.992;12.666;2023-01-29T07:12:53;24.00;;;12.33;;
41661;SDS011;27351;45.992;12.666;2023-01-29T07:15:19;23.17;;;11.97;;
41661;SDS011;27351;45.992;12.666;2023-01-29T07:17:56;24.10;;;12.20;;
41661;SDS011;27351;45.992;12.666;2023-01-29T07:20:23;25.00;;;14.05;;
41661;SDS011;27351;45.992;12.666;2023-01-29T07:22:49;23.67;;;13.10;;
41661;SDS011;27351;45.992;12.666;2023-01-29T07:25:16;23.33;;;12.87;;
41661;SDS011;27351;45.992;12.666;2023-01-29T07:27:42;22.80;;;12.45;;
41661;SDS011;27351;45.992;12.666;2023-01-29T07:30:08;24.60;;;13.35;;
41661;SDS011;27351;45.992;12.666;2023-01-29T07:32:34;25.77;;;13.63;;
41661;SDS011;27351;45.992;12.666;2023-01-29T07:35:00;23.02;;;12.35;;
41661;SDS011;27351;45.992;12.666;2023-01-29T07:37:26;23.60;;;12.80;;
41661;SDS011;27351;45.992;12.666;2023-01-29T07:39:52;27.88;;;13.98;;
41661;SDS011;27351;45.992;12.666;2023-01-29T07:42:19;26.88;;;13.80;;
41661;SDS011;27351;45.992;12.666;2023-01-29T07:44:45;27.60;;;14.23;;
41661;SDS011;27351;45.992;12.666;2023-01-29T07:47:10;24.75;;;12.88;;
41661;SDS011;27351;45.992;12.666;2023-01-29T07:49:36;27.83;;;14.18;;
41661;SDS011;27351;45.992;12.666;2023-01-29T07:52:02;26.67;;;14.30;;
41661;SDS011;27351;45.992;12.666;2023-01-29T07:54:28;27.13;;;14.83;;
41661;SDS011;27351;45.992;12.666;2023-01-29T07:56:53;28.37;;;14.10;;
41661;SDS011;27351;45.992;12.666;2023-01-29T07:59:19;26.30;;;14.30;;
41661;SDS011;27351;45.992;12.666;2023-01-29T08:01:45;22.30;;;12.30;;
41661;SDS011;27351;45.992;12.666;2023-01-29T08:04:11;23.85;;;11.52;;
41661;SDS011;27351;45.992;12.666;2023-01-29T08:06:37;20.60;;;11.70;;
41661;SDS011;27351;45.992;12.666;2023-01-29T08:09:04;22.73;;;12.23;;
41661;SDS011;27351;45.992;12.666;2023-01-29T08:11:30;22.23;;;12.27;;
41661;SDS011;27351;45.992;12.666;2023-01-29T08:13:57;22.30;;;12.23;;
41661;SDS011;27351;45.992;12.666;2023-01-29T08:16:24;20.63;;;11.65;;
41661;SDS011;27351;45.992;12.666;2023-01-29T08:18:50;28.13;;;12.65;;
41661;SDS011;27351;45.992;12.666;2023-01-29T08:21:16;24.53;;;13.10;;
41661;SDS011;27351;45.992;12.666;2023-01-29T08:23:44;22.55;;;12.43;;
41661;SDS011;27351;45.992;12.666;2023-01-29T08:26:10;25.00;;;13.57;;
41661;SDS011;27351;45.992;12.666;2023-01-29T08:28:36;24.35;;;13.13;;
41661;SDS011;27351;45.992;12.666;2023-01-29T08:31:03;21.47;;;11.93;;
41661;SDS011;27351;45.992;12.666;2023-01-29T08:33:29;23.88;;;13.18;;
41661;SDS011;27351;45.992;12.666;2023-01-29T08:35:55;21.13;;;11.87;;
41661;SDS011;27351;45.992;12.666;2023-01-29T08:38:20;24.60;;;13.48;;
41661;SDS011;27351;45.992;12.666;2023-01-29T08:40:46;25.67;;;13.82;;
41661;SDS011;27351;45.992;12.666;2023-01-29T08:43:12;26.00;;;13.88;;
41661;SDS011;27351;45.992;12.666;2023-01-29T08:45:41;25.30;;;13.57;;
41661;SDS011;27351;45.992;12.666;2023-01-29T08:48:07;26.55;;;14.75;;
41661;SDS011;27351;45.992;12.666;2023-01-29T08:50:33;26.80;;;15.33;;
41661;SDS011;27351;45.992;12.666;2023-01-29T08:53:01;29.17;;;16.08;;
41661;SDS011;27351;45.992;12.666;2023-01-29T08:55:26;28.10;;;16.10;;
41661;SDS011;27351;45.992;12.666;2023-01-29T08:57:52;28.33;;;15.70;;
41661;SDS011;27351;45.992;12.666;2023-01-29T09:00:24;28.42;;;14.88;;
41661;SDS011;27351;45.992;12.666;2023-01-29T09:02:50;26.83;;;14.45;;
41661;SDS011;27351;45.992;12.666;2023-01-29T09:05:15;28.50;;;15.03;;
41661;SDS011;27351;45.992;12.666;2023-01-29T09:07:41;26.67;;;14.73;;
41661;SDS011;27351;45.992;12.666;2023-01-29T09:10:07;26.15;;;14.82;;
41661;SDS011;27351;45.992;12.666;2023-01-29T09:12:33;30.70;;;16.75;;
41661;SDS011;27351;45.992;12.666;2023-01-29T09:14:59;28.13;;;16.60;;
41661;SDS011;27351;45.992;12.666;2023-01-29T09:17:25;29.48;;;16.25;;
41661;SDS011;27351;45.992;12.666;2023-01-29T09:19:51;27.77;;;14.20;;
41661;SDS011;27351;45.992;12.666;2023-01-29T09:22:17;25.60;;;15.20;;
41661;SDS011;27351;45.992;12.666;2023-01-29T09:24:43;26.65;;;15.55;;
41661;SDS011;27351;45.992;12.666;2023-01-29T09:27:09;28.63;;;15.40;;
41661;SDS011;27351;45.992;12.666;2023-01-29T09:29:38;25.08;;;14.35;;
41661;SDS011;27351;45.992;12.666;2023-01-29T09:32:04;23.20;;;12.13;;
41661;SDS011;27351;45.992;12.666;2023-01-29T09:34:30;23.05;;;13.20;;
41661;SDS011;27351;45.992;12.666;2023-01-29T09:36:55;26.08;;;12.90;;
41661;SDS011;27351;45.992;12.666;2023-01-29T09:39:21;23.75;;;12.10;;
41661;SDS011;27351;45.992;12.666;2023-01-29T09:44:32;25.10;;;12.23;;
41661;SDS011;27351;45.992;12.666;2023-01-29T09:47:02;24.27;;;13.37;;
41661;SDS011;27351;45.992;12.666;2023-01-29T09:49:31;21.77;;;11.93;;
41661;SDS011;27351;45.992;12.666;2023-01-29T09:54:33;21.75;;;12.23;;
41661;SDS011;27351;45.992;12.666;2023-01-29T09:57:00;22.20;;;11.30;;
41661;SDS011;27351;45.992;12.666;2023-01-29T09:59:30;20.20;;;10.43;;
41661;SDS011;27351;45.992;12.666;2023-01-29T10:14:54;21.90;;;10.68;;
41661;SDS011;27351;45.992;12.666;2023-01-29T10:25:14;21.20;;;11.70;;
41661;SDS011;27351;45.992;12.666;2023-01-29T10:27:46;20.53;;;10.80;;
41661;SDS011;27351;45.992;12.666;2023-01-29T10:30:20;19.70;;;10.55;;
41661;SDS011;27351;45.992;12.666;2023-01-29T10:32:47;21.50;;;11.27;;
41661;SDS011;27351;45.992;12.666;2023-01-29T10:35:23;21.42;;;11.23;;
41661;SDS011;27351;45.992;12.666;2023-01-29T10:37:53;18.15;;;9.60;;
41661;SDS011;27351;45.992;12.666;2023-01-29T10:40:23;22.63;;;11.20;;
41661;SDS011;27351;45.992;12.666;2023-01-29T10:43:10;19.83;;;10.85;;
41661;SDS011;27351;45.992;12.666;2023-01-29T10:48:26;19.97;;;10.93;;
41661;SDS011;27351;45.992;12.666;2023-01-29T10:53:39;20.80;;;10.30;;
41661;SDS011;27351;45.992;12.666;2023-01-29T10:56:14;18.45;;;9.75;;
41661;SDS011;27351;45.992;12.666;2023-01-29T10:58:58;21.00;;;11.00;;
41661;SDS011;27351;45.992;12.666;2023-01-29T11:01:25;21.20;;;11.15;;
41661;SDS011;27351;45.992;12.666;2023-01-29T11:03:57;20.73;;;10.90;;
41661;SDS011;27351;45.992;12.666;2023-01-29T11:06:27;18.77;;;10.73;;
41661;SDS011;27351;45.992;12.666;2023-01-29T11:14:04;20.07;;;10.33;;
41661;SDS011;27351;45.992;12.666;2023-01-29T11:16:40;18.47;;;9.17;;
41661;SDS011;27351;45.992;12.666;2023-01-29T11:19:06;17.50;;;9.77;;
41661;SDS011;27351;45.992;12.666;2023-01-29T11:21:33;20.43;;;10.13;;
41661;SDS011;27351;45.992;12.666;2023-01-29T11:24:16;22.83;;;11.27;;
41661;SDS011;27351;45.992;12.666;2023-01-29T11:26:44;22.65;;;11.27;;
41661;SDS011;27351;45.992;12.666;2023-01-29T11:31:58;17.98;;;9.73;;
41661;SDS011;27351;45.992;12.666;2023-01-29T11:34:24;18.67;;;10.13;;
41661;SDS011;27351;45.992;12.666;2023-01-29T11:36:56;18.58;;;9.65;;
41661;SDS011;27351;45.992;12.666;2023-01-29T11:39:23;21.42;;;10.68;;
41661;SDS011;27351;45.992;12.666;2023-01-29T11:42:00;19.25;;;9.70;;
41661;SDS011;27351;45.992;12.666;2023-01-29T11:44:40;20.42;;;11.02;;
41661;SDS011;27351;45.992;12.666;2023-01-29T11:49:47;19.85;;;10.27;;
41661;SDS011;27351;45.992;12.666;2023-01-29T11:52:14;21.65;;;11.40;;
41661;SDS011;27351;45.992;12.666;2023-01-29T11:54:46;20.30;;;10.90;;
41661;SDS011;27351;45.992;12.666;2023-01-29T11:57:18;20.15;;;10.63;;
41661;SDS011;27351;45.992;12.666;2023-01-29T11:59:48;18.67;;;10.40;;
41661;SDS011;27351;45.992;12.666;2023-01-29T12:02:31;18.13;;;10.38;;
41661;SDS011;27351;45.992;12.666;2023-01-29T12:05:20;22.48;;;11.23;;
41661;SDS011;27351;45.992;12.666;2023-01-29T12:07:47;19.23;;;11.07;;
41661;SDS011;27351;45.992;12.666;2023-01-29T12:10:34;19.92;;;11.00;;
41661;SDS011;27351;45.992;12.666;2023-01-29T12:15:29;21.15;;;11.25;;
41661;SDS011;27351;45.992;12.666;2023-01-29T12:18:38;21.13;;;10.68;;
41661;SDS011;27351;45.992;12.666;2023-01-29T12:20:45;23.13;;;11.73;;
41661;SDS011;27351;45.992;12.666;2023-01-29T12:38:33;22.37;;;11.33;;
41661;SDS011;27351;45.992;12.666;2023-01-29T12:41:06;21.42;;;10.98;;
41661;SDS011;27351;45.992;12.666;2023-01-29T12:45:58;22.10;;;11.27;;
41661;SDS011;27351;45.992;12.666;2023-01-29T12:48:36;20.77;;;11.45;;
41661;SDS011;27351;45.992;12.666;2023-01-29T12:51:09;21.55;;;10.43;;
41661;SDS011;27351;45.992;12.666;2023-01-29T12:53:42;20.38;;;10.55;;
41661;SDS011;27351;45.992;12.666;2023-01-29T12:56:11;19.15;;;11.00;;
41661;SDS011;27351;45.992;12.666;2023-01-29T12:58:45;22.02;;;11.05;;
41661;SDS011;27351;45.992;12.666;2023-01-29T13:01:32;20.80;;;10.90;;
41661;SDS011;27351;45.992;12.666;2023-01-29T13:06:33;19.67;;;10.33;;
41661;SDS011;27351;45.992;12.666;2023-01-29T13:09:02;24.17;;;10.93;;
41661;SDS011;27351;45.992;12.666;2023-01-29T13:14:12;20.73;;;10.33;;
41661;SDS011;27351;45.992;12.666;2023-01-29T13:16:43;21.67;;;10.93;;
41661;SDS011;27351;45.992;12.666;2023-01-29T13:19:30;20.63;;;11.00;;
41661;SDS011;27351;45.992;12.666;2023-01-29T13:21:59;21.98;;;10.68;;
41661;SDS011;27351;45.992;12.666;2023-01-29T13:24:26;21.08;;;11.07;;
41661;SDS011;27351;45.992;12.666;2023-01-29T13:26:55;20.60;;;10.50;;
41661;SDS011;27351;45.992;12.666;2023-01-29T13:29:22;22.10;;;11.27;;
41661;SDS011;27351;45.992;12.666;2023-01-29T13:31:49;19.45;;;10.77;;
41661;SDS011;27351;45.992;12.666;2023-01-29T13:34:23;21.63;;;11.25;;
41661;SDS011;27351;45.992;12.666;2023-01-29T13:36:51;21.98;;;11.18;;
41661;SDS011;27351;45.992;12.666;2023-01-29T13:41:52;21.80;;;11.52;;
41661;SDS011;27351;45.992;12.666;2023-01-29T13:46:55;22.15;;;10.90;;
41661;SDS011;27351;45.992;12.666;2023-01-29T13:49:27;20.98;;;10.18;;
41661;SDS011;27351;45.992;12.666;2023-01-29T13:54:39;19.27;;;10.50;;
41661;SDS011;27351;45.992;12.666;2023-01-29T13:57:15;21.33;;;10.85;;
41661;SDS011;27351;45.992;12.666;2023-01-29T13:59:54;21.38;;;11.10;;
41661;SDS011;27351;45.992;12.666;2023-01-29T14:02:22;23.63;;;11.40;;
41661;SDS011;27351;45.992;12.666;2023-01-29T14:04:48;20.80;;;11.77;;
41661;SDS011;27351;45.992;12.666;2023-01-29T14:10:11;21.53;;;11.00;;
41661;SDS011;27351;45.992;12.666;2023-01-29T14:12:39;22.15;;;12.05;;
41661;SDS011;27351;45.992;12.666;2023-01-29T14:15:18;22.30;;;11.73;;
41661;SDS011;27351;45.992;12.666;2023-01-29T14:20:48;19.30;;;9.70;;
41661;SDS011;27351;45.992;12.666;2023-01-29T14:23:36;20.13;;;10.38;;
41661;SDS011;27351;45.992;12.666;2023-01-29T14:26:02;23.17;;;11.95;;
41661;SDS011;27351;45.992;12.666;2023-01-29T14:28:30;23.25;;;11.50;;
41661;SDS011;27351;45.992;12.666;2023-01-29T14:30:56;19.75;;;10.43;;
41661;SDS011;27351;45.992;12.666;2023-01-29T14:33:23;20.73;;;10.80;;
41661;SDS011;27351;45.992;12.666;2023-01-29T14:35:49;20.38;;;9.95;;
41661;SDS011;27351;45.992;12.666;2023-01-29T14:38:17;19.90;;;10.80;;
41661;SDS011;27351;45.992;12.666;2023-01-29T14:40:44;19.77;;;10.77;;
41661;SDS011;27351;45.992;12.666;2023-01-29T14:43:19;20.42;;;10.70;;
41661;SDS011;27351;45.992;12.666;2023-01-29T14:45:49;21.02;;;10.82;;
41661;SDS011;27351;45.992;12.666;2023-01-29T14:48:34;21.48;;;10.55;;
41661;SDS011;27351;45.992;12.666;2023-01-29T14:51:05;21.95;;;11.02;;
41661;SDS011;27351;45.992;12.666;2023-01-29T14:53:50;20.92;;;10.63;;
41661;SDS011;27351;45.992;12.666;2023-01-29T14:56:19;20.88;;;10.68;;
41661;SDS011;27351;45.992;12.666;2023-01-29T14:58:47;20.27;;;10.75;;
41661;SDS011;27351;45.992;12.666;2023-01-29T15:01:21;21.42;;;10.45;;
41661;SDS011;27351;45.992;12.666;2023-01-29T15:03:49;23.33;;;11.77;;
41661;SDS011;27351;45.992;12.666;2023-01-29T15:06:22;20.08;;;11.05;;
41661;SDS011;27351;45.992;12.666;2023-01-29T15:08:52;21.38;;;10.80;;
41661;SDS011;27351;45.992;12.666;2023-01-29T15:11:26;21.75;;;11.73;;
41661;SDS011;27351;45.992;12.666;2023-01-29T15:17:15;22.67;;;11.80;;
41661;SDS011;27351;45.992;12.666;2023-01-29T15:19:23;23.52;;;11.38;;
41661;SDS011;27351;45.992;12.666;2023-01-29T15:22:07;21.83;;;11.40;;
41661;SDS011;27351;45.992;12.666;2023-01-29T15:24:33;21.88;;;11.82;;
41661;SDS011;27351;45.992;12.666;2023-01-29T15:27:00;22.75;;;11.93;;
41661;SDS011;27351;45.992;12.666;2023-01-29T15:29:28;20.88;;;11.13;;
41661;SDS011;27351;45.992;12.666;2023-01-29T15:31:54;21.02;;;11.43;;
41661;SDS011;27351;45.992;12.666;2023-01-29T15:34:21;19.73;;;10.68;;
41661;SDS011;27351;45.992;12.666;2023-01-29T15:36:47;22.80;;;11.18;;
41661;SDS011;27351;45.992;12.666;2023-01-29T15:39:17;21.95;;;11.35;;
41661;SDS011;27351;45.992;12.666;2023-01-29T15:42:03;21.10;;;10.90;;
41661;SDS011;27351;45.992;12.666;2023-01-29T15:44:29;22.80;;;11.68;;
41661;SDS011;27351;45.992;12.666;2023-01-29T15:46:55;20.47;;;10.70;;
41661;SDS011;27351;45.992;12.666;2023-01-29T15:51:55;20.63;;;10.98;;
41661;SDS011;27351;45.992;12.666;2023-01-29T15:54:22;22.13;;;11.05;;
41661;SDS011;27351;45.992;12.666;2023-01-29T15:57:02;20.80;;;10.83;;
41661;SDS011;27351;45.992;12.666;2023-01-29T15:59:30;23.00;;;11.70;;
41661;SDS011;27351;45.992;12.666;2023-01-29T16:02:16;23.45;;;11.88;;
41661;SDS011;27351;45.992;12.666;2023-01-29T16:04:43;23.67;;;12.30;;
41661;SDS011;27351;45.992;12.666;2023-01-29T16:07:09;24.17;;;12.95;;
41661;SDS011;27351;45.992;12.666;2023-01-29T16:09:35;27.92;;;14.30;;
41661;SDS011;27351;45.992;12.666;2023-01-29T16:12:01;31.40;;;14.30;;
41661;SDS011;27351;45.992;12.666;2023-01-29T16:14:28;29.58;;;16.83;;
41661;SDS011;27351;45.992;12.666;2023-01-29T16:16:55;30.63;;;16.35;;
41661;SDS011;27351;45.992;12.666;2023-01-29T16:19:23;31.45;;;16.25;;
41661;SDS011;27351;45.992;12.666;2023-01-29T16:21:57;28.38;;;14.35;;
41661;SDS011;27351;45.992;12.666;2023-01-29T16:24:24;23.63;;;12.15;;
41661;SDS011;27351;45.992;12.666;2023-01-29T16:26:51;23.65;;;12.35;;
41661;SDS011;27351;45.992;12.666;2023-01-29T16:29:18;29.43;;;13.23;;
41661;SDS011;27351;45.992;12.666;2023-01-29T16:31:46;27.05;;;12.98;;
41661;SDS011;27351;45.992;12.666;2023-01-29T16:34:15;29.80;;;14.73;;
41661;SDS011;27351;45.992;12.666;2023-01-29T16:36:45;26.02;;;13.77;;
41661;SDS011;27351;45.992;12.666;2023-01-29T16:39:17;25.23;;;12.38;;
41661;SDS011;27351;45.992;12.666;2023-01-29T16:41:44;30.45;;;14.43;;